Time;durP1;ratioP1;P1;durP2;ratioP2;P2;SDS_P1;SDS_P2;PMS_P1;PMS_P2;Temp;Humidity;BMP_temperature;BMP_pressure;BME280_temperature;BME280_humidity;BME280_pressure;Samples;Min_cycle;Max_cycle;Signal;HPM_P1;HPM_P2
2021/05/21 00:00:18;;;;;;;3.05;2.40;;;9.00;99.90;;;;;;6343589;28;20054;-79
2021/05/21 00:03:19;;;;;;;3.60;2.70;;;8.80;99.90;;;;;;6343473;28;20032;-79
2021/05/21 00:06:19;;;;;;;3.78;2.58;;;8.80;99.90;;;;;;6344749;28;20019;-79
2021/05/21 00:09:20;;;;;;;2.80;2.42;;;9.20;99.90;;;;;;6333275;28;20529;-79
2021/05/21 00:12:21;;;;;;;7.30;2.90;;;;;;;;;;6319885;28;20040;-79
2021/05/21 00:15:22;;;;;;;6.60;2.55;;;8.80;99.90;;;;;;6318576;28;20024;-79
2021/05/21 00:18:22;;;;;;;2.38;2.15;;;;;;;;;;6319459;28;20028;-80
2021/05/21 00:21:23;;;;;;;6.10;2.60;;;8.90;99.90;;;;;;6319205;28;20435;-79
2021/05/21 00:24:24;;;;;;;3.53;2.45;;;8.90;99.90;;;;;;6318108;28;20032;-79
2021/05/21 00:27:24;;;;;;;3.08;2.22;;;8.90;99.90;;;;;;6319492;28;20330;-79
2021/05/21 00:30:25;;;;;;;5.80;2.30;;;8.80;99.90;;;;;;6301250;28;20123;-80
2021/05/21 00:33:25;;;;;;;3.15;2.40;;;8.70;99.90;;;;;;6317625;28;20489;-80
2021/05/21 00:36:26;;;;;;;3.85;2.50;;;8.70;99.90;;;;;;6287337;28;20032;-79
2021/05/21 00:39:27;;;;;;;4.07;2.60;;;8.90;99.90;;;;;;6313992;28;20040;-79
2021/05/21 00:42:28;;;;;;;3.13;2.30;;;;;;;;;;6284127;28;20028;-79
2021/05/21 00:45:29;;;;;;;2.78;2.58;;;;;;;;;;6344045;28;20026;-79
2021/05/21 00:48:29;;;;;;;4.30;2.45;;;8.60;99.90;;;;;;6343985;28;20485;-80
2021/05/21 00:51:30;;;;;;;2.88;2.53;;;8.60;99.90;;;;;;6308663;28;20404;-80
2021/05/21 00:54:30;;;;;;;3.13;2.30;;;8.80;99.90;;;;;;6304004;28;20054;-79
2021/05/21 00:57:31;;;;;;;2.75;2.47;;;8.90;99.90;;;;;;6300124;28;20081;-79
2021/05/21 01:00:32;;;;;;;3.45;2.60;;;8.50;99.90;;;;;;6316956;28;20027;-79
2021/05/21 01:03:36;;;;;;;3.78;2.60;;;8.90;99.90;;;;;;6317004;28;20564;-79
2021/05/21 01:06:37;;;;;;;4.43;2.78;;;8.70;99.90;;;;;;6301283;28;20028;-80
2021/05/21 01:09:37;;;;;;;2.88;2.55;;;8.50;99.90;;;;;;6318140;28;20650;-80
2021/05/21 01:12:38;;;;;;;2.90;2.55;;;8.30;99.90;;;;;;6325391;28;20118;-79
2021/05/21 01:15:40;;;;;;;3.17;2.88;;;8.70;99.90;;;;;;6341827;28;20023;-79
2021/05/21 01:18:41;;;;;;;4.93;2.92;;;8.30;99.90;;;;;;6342344;28;20032;-79
2021/05/21 01:21:42;;;;;;;3.90;2.60;;;8.50;99.90;;;;;;6324908;28;20072;-79
2021/05/21 01:24:43;;;;;;;4.90;2.67;;;8.30;99.90;;;;;;6336302;28;20067;-79
2021/05/21 01:27:44;;;;;;;7.32;2.55;;;;;;;;;;6316830;28;20020;-79
2021/05/21 01:30:45;;;;;;;5.47;2.78;;;8.40;99.90;;;;;;6300035;28;20032;-79
2021/05/21 01:33:45;;;;;;;4.13;2.55;;;8.70;99.90;;;;;;6273197;28;20036;-79
2021/05/21 01:36:47;;;;;;;2.95;2.67;;;8.30;99.90;;;;;;6311160;28;20032;-79
2021/05/21 01:39:50;;;;;;;5.37;2.60;;;8.40;99.90;;;;;;6300055;28;20481;-79
2021/05/21 01:42:51;;;;;;;3.85;2.70;;;8.50;99.90;;;;;;6283163;28;20262;-79
2021/05/21 01:45:52;;;;;;;2.20;2.00;;;8.40;99.90;;;;;;6297921;28;20381;-79
2021/05/21 01:48:52;;;;;;;3.35;2.40;;;8.30;99.90;;;;;;6316024;28;20048;-79
2021/05/21 01:51:57;;;;;;;2.97;2.65;;;8.40;99.90;;;;;;6316577;28;20470;-79
2021/05/21 01:54:58;;;;;;;3.33;2.20;;;8.40;99.90;;;;;;6295912;28;20050;-79
2021/05/21 01:57:59;;;;;;;3.67;2.65;;;8.40;99.90;;;;;;6317657;28;20059;-79
2021/05/21 02:01:00;;;;;;;3.20;2.80;;;;;;;;;;6318174;28;20043;-79
2021/05/21 02:04:02;;;;;;;4.25;2.45;;;;;;;;;;6316441;28;20060;-79
2021/05/21 02:07:03;;;;;;;6.88;2.60;;;;;;;;;;6317800;28;20024;-79
2021/05/21 02:10:08;;;;;;;2.35;2.15;;;8.30;99.90;;;;;;6322631;28;20024;-79
2021/05/21 02:13:09;;;;;;;3.72;2.30;;;8.20;99.90;;;;;;6321113;28;20126;-79
2021/05/21 02:16:10;;;;;;;2.50;2.30;;;;;;;;;;6304094;28;20024;-79
2021/05/21 02:19:11;;;;;;;4.22;2.38;;;8.30;99.90;;;;;;6322510;28;20730;-79
2021/05/21 02:22:12;;;;;;;4.20;2.42;;;8.40;99.90;;;;;;6320750;28;20070;-79
2021/05/21 02:25:14;;;;;;;2.50;2.22;;;8.50;99.90;;;;;;6304335;28;20082;-79
2021/05/21 02:28:15;;;;;;;2.97;2.22;;;;;;;;;;6296407;28;20115;-79
2021/05/21 02:31:16;;;;;;;2.20;2.03;;;8.30;99.90;;;;;;6321929;28;20028;-79
2021/05/21 02:34:16;;;;;;;2.75;2.30;;;8.30;99.90;;;;;;6322474;28;20036;-79
2021/05/21 02:37:17;;;;;;;2.83;2.08;;;8.50;99.90;;;;;;6287056;28;20490;-79
2021/05/21 02:40:18;;;;;;;3.05;2.28;;;8.10;99.90;;;;;;6320442;28;20465;-79
2021/05/21 02:43:18;;;;;;;2.70;2.30;;;8.40;99.90;;;;;;6321507;28;20024;-80
2021/05/21 02:46:19;;;;;;;4.32;2.40;;;8.40;99.90;;;;;;6303582;28;20465;-79
2021/05/21 02:49:20;;;;;;;3.45;2.50;;;8.30;99.90;;;;;;6319983;28;20043;-79
2021/05/21 02:52:22;;;;;;;6.65;2.45;;;8.60;99.90;;;;;;6321748;28;20074;-80
2021/05/21 02:55:22;;;;;;;3.88;2.25;;;8.70;99.90;;;;;;6320245;28;20454;-80
2021/05/21 02:58:23;;;;;;;3.13;2.60;;;9.30;99.90;;;;;;6321749;28;20031;-79
2021/05/21 03:01:24;;;;;;;3.08;2.60;;;8.60;99.90;;;;;;6321586;28;20390;-80
2021/05/21 03:04:24;;;;;;;3.58;2.20;;;8.60;99.90;;;;;;6307489;28;20040;-79
2021/05/21 03:07:25;;;;;;;3.08;2.10;;;;;;;;;;6321106;28;20032;-79
2021/05/21 03:10:26;;;;;;;43.97;17.98;;;8.80;99.90;;;;;;6319584;28;20069;-80
2021/05/21 03:13:27;;;;;;;16.58;9.32;;;;;;;;;;6302852;28;20039;-79
2021/05/21 03:16:28;;;;;;;3.75;2.40;;;8.60;99.90;;;;;;6319412;28;20111;-80
2021/05/21 03:19:29;;;;;;;4.30;3.80;;;8.70;99.90;;;;;;6319736;28;20424;-79
2021/05/21 03:22:29;;;;;;;6.20;4.68;;;8.80;99.90;;;;;;6319800;28;20128;-79
2021/05/21 03:25:30;;;;;;;3.90;2.83;;;8.80;99.90;;;;;;6312036;28;20024;-79
2021/05/21 03:28:30;;;;;;;6.30;3.65;;;8.70;99.90;;;;;;6319458;28;20496;-80
2021/05/21 03:31:31;;;;;;;4.82;3.05;;;8.90;99.90;;;;;;6320630;28;20046;-79
2021/05/21 03:34:32;;;;;;;3.25;2.95;;;9.60;99.90;;;;;;6320954;28;20454;-79
2021/05/21 03:37:32;;;;;;;4.88;2.58;;;8.70;99.90;;;;;;6318981;28;20024;-79
2021/05/21 03:40:34;;;;;;;3.10;2.42;;;8.70;99.90;;;;;;6313688;28;20051;-80
2021/05/21 03:43:34;;;;;;;4.07;2.45;;;8.70;99.90;;;;;;6313165;28;20028;-80
2021/05/21 03:46:35;;;;;;;3.60;2.30;;;8.80;99.90;;;;;;6335616;28;20042;-80
2021/05/21 03:49:36;;;;;;;3.75;2.25;;;8.90;99.90;;;;;;6344093;28;20123;-79
2021/05/21 03:52:36;;;;;;;6.07;2.38;;;9.00;99.90;;;;;;6344199;28;20126;-80
2021/05/21 03:55:37;;;;;;;2.60;2.40;;;9.40;99.90;;;;;;6327301;28;20039;-79
2021/05/21 03:58:38;;;;;;;2.15;1.95;;;8.90;99.90;;;;;;6327506;28;20103;-79
2021/05/21 04:01:39;;;;;;;8.35;4.05;;;8.80;99.90;;;;;;6301770;28;20077;-79
2021/05/21 04:04:40;;;;;;;2.53;2.30;;;9.30;99.90;;;;;;6327808;28;20023;-79
2021/05/21 04:07:40;;;;;;;5.65;2.58;;;9.00;99.90;;;;;;6327088;28;20435;-79
2021/05/21 04:10:41;;;;;;;2.92;2.50;;;9.30;99.90;;;;;;6326851;28;20092;-79
2021/05/21 04:13:41;;;;;;;2.63;2.22;;;9.80;99.90;;;;;;6344805;28;20560;-79
2021/05/21 04:16:42;;;;;;;7.88;6.13;;;9.70;99.90;;;;;;6326538;28;20469;-79
2021/05/21 04:19:42;;;;;;;5.88;3.80;;;10.00;99.90;;;;;;6343808;28;20969;-80
2021/05/21 04:22:43;;;;;;;2.70;2.25;;;11.00;99.90;;;;;;6326351;28;20057;-79
2021/05/21 04:25:44;;;;;;;3.20;2.28;;;11.10;99.90;;;;;;6344729;28;20051;-79
2021/05/21 04:28:48;;;;;;;4.18;2.22;;;11.30;99.90;;;;;;6343465;28;20131;-79
2021/05/21 04:31:49;;;;;;;3.55;3.20;;;11.00;99.90;;;;;;6316393;28;20039;-79
2021/05/21 04:34:50;;;;;;;2.75;2.30;;;;;;;;;;6317446;28;20028;-82
2021/05/21 04:37:50;;;;;;;4.30;2.35;;;11.70;99.90;;;;;;6300859;28;20100;-81
2021/05/21 04:40:51;;;;;;;7.28;2.40;;;;;;;;;;6319460;28;20359;-82
2021/05/21 04:43:54;;;;;;;2.88;2.22;;;12.10;99.90;;;;;;6317829;28;20080;-82
2021/05/21 04:46:55;;;;;;;3.25;2.05;;;;;;;;;;6314737;28;20083;-82
2021/05/21 04:49:56;;;;;;;6.82;2.40;;;;;;;;;;6332661;28;20142;-82
2021/05/21 04:52:56;;;;;;;8.27;2.67;;;11.60;99.90;;;;;;6323320;28;20039;-83
2021/05/21 04:55:57;;;;;;;2.65;2.20;;;;;;;;;;6325606;28;20038;-85
2021/05/21 04:58:58;;;;;;;6.57;2.38;;;12.00;99.90;;;;;;6325892;28;20070;-83
2021/05/21 05:01:59;;;;;;;2.60;2.40;;;11.90;99.90;;;;;;6315383;28;20540;-82
2021/05/21 05:05:00;;;;;;;5.00;3.10;;;;;;;;;;6308262;28;20073;-82
2021/05/21 05:08:00;;;;;;;7.53;3.92;;;12.00;99.90;;;;;;6317833;28;20392;-81
2021/05/21 05:11:01;;;;;;;7.68;3.00;;;;;;;;;;6317096;28;20036;-81
2021/05/21 05:14:02;;;;;;;21.73;10.50;;;12.10;99.90;;;;;;6318710;28;20024;-84
2021/05/21 05:17:03;;;;;;;4.95;3.80;;;;;;;;;;6283657;28;20028;-83
2021/05/21 05:20:05;;;;;;;4.63;2.80;;;;;;;;;;6321413;28;20549;-84
2021/05/21 05:23:07;;;;;;;4.10;2.97;;;12.10;99.90;;;;;;6322688;28;20531;-82
2021/05/21 05:26:12;;;;;;;3.70;2.80;;;12.10;99.90;;;;;;6300278;28;20028;-82
2021/05/21 05:29:13;;;;;;;6.18;3.00;;;12.10;99.90;;;;;;6300391;28;20113;-81
2021/05/21 05:32:14;;;;;;;3.42;2.63;;;;;;;;;;6317054;28;20039;-77
2021/05/21 05:35:15;;;;;;;4.03;2.95;;;;;;;;;;6331233;28;20028;-77
2021/05/21 05:38:16;;;;;;;5.25;3.20;;;;;;;;;;6343006;28;20027;-77
2021/05/21 05:41:17;;;;;;;4.25;3.40;;;;;;;;;;6341850;28;20487;-80
2021/05/21 05:44:18;;;;;;;3.60;3.10;;;;;;;;;;6320804;28;20043;-80
2021/05/21 05:47:19;;;;;;;3.00;2.65;;;12.50;99.90;;;;;;6307387;28;20059;-81
2021/05/21 05:50:19;;;;;;;3.75;3.13;;;12.20;99.90;;;;;;6297469;28;20114;-80
2021/05/21 05:53:20;;;;;;;9.35;6.63;;;12.60;99.90;;;;;;6304504;28;20040;-82
2021/05/21 05:56:21;;;;;;;5.18;3.58;;;12.60;99.90;;;;;;6287677;28;20028;-80
2021/05/21 05:59:24;;;;;;;6.10;2.70;;;;;;;;;;6300911;28;20024;-81
2021/05/21 06:02:25;;;;;;;4.47;2.90;;;13.10;99.90;;;;;;6320674;28;20144;-81
2021/05/21 06:05:25;;;;;;;2.53;2.25;;;13.40;99.90;;;;;;6303624;28;20069;-81
2021/05/21 06:08:26;;;;;;;3.63;2.78;;;13.50;99.90;;;;;;6304318;28;20028;-81
2021/05/21 06:11:26;;;;;;;15.32;9.52;;;13.50;99.90;;;;;;6320814;28;20089;-80
2021/05/21 06:14:27;;;;;;;5.95;4.35;;;13.90;99.90;;;;;;6322554;28;20047;-81
2021/05/21 06:17:27;;;;;;;4.03;3.00;;;13.70;99.90;;;;;;6287331;28;20027;-80
2021/05/21 06:20:29;;;;;;;6.55;3.30;;;13.70;99.90;;;;;;6322149;28;20109;-80
2021/05/21 06:23:30;;;;;;;4.45;2.88;;;13.70;99.90;;;;;;6303559;28;20031;-81
2021/05/21 06:26:37;;;;;;;5.13;2.05;;;14.10;99.90;;;;;;6321109;28;20111;-80
2021/05/21 06:29:37;;;;;;;4.20;1.73;;;14.40;98.40;;;;;;6286981;28;20378;-81
2021/05/21 06:32:38;;;;;;;3.22;1.50;;;15.00;95.50;;;;;;6328832;28;20035;-81
2021/05/21 06:35:39;;;;;;;3.05;1.60;;;15.00;94.20;;;;;;6345602;28;20031;-82
2021/05/21 06:38:39;;;;;;;3.22;1.88;;;15.00;85.30;;;;;;6327835;28;20043;-79
2021/05/21 06:41:40;;;;;;;3.00;1.65;;;15.10;82.20;;;;;;6303559;28;20032;-81
2021/05/21 06:44:41;;;;;;;1.85;1.52;;;15.20;78.90;;;;;;6302069;28;20051;-81
2021/05/21 06:47:42;;;;;;;3.53;1.45;;;15.20;85.20;;;;;;6319992;28;20052;-80
2021/05/21 06:50:43;;;;;;;1.88;1.42;;;15.30;82.20;;;;;;6271638;28;20032;-81
2021/05/21 06:53:43;;;;;;;4.72;1.88;;;15.20;83.80;;;;;;6285243;28;20397;-81
2021/05/21 06:56:45;;;;;;;2.58;1.58;;;;;;;;;;6318946;28;20381;-81
2021/05/21 06:59:45;;;;;;;1.65;1.55;;;15.30;94.70;;;;;;6302873;28;20115;-81
2021/05/21 07:02:46;;;;;;;1.88;1.52;;;15.10;92.70;;;;;;6320108;28;20623;-81
2021/05/21 07:05:47;;;;;;;2.75;1.73;;;15.10;82.10;;;;;;6284508;28;20866;-80
2021/05/21 07:08:51;;;;;;;3.40;1.70;;;15.00;94.60;;;;;;6291183;28;20415;-80
2021/05/21 07:11:51;;;;;;;3.17;1.33;;;15.20;92.70;;;;;;6320704;28;20032;-80
2021/05/21 07:14:52;;;;;;;1.60;1.50;;;15.20;94.80;;;;;;6311337;28;20028;-80
2021/05/21 07:17:52;;;;;;;3.67;1.98;;;15.30;95.50;;;;;;6320675;28;20056;-82
2021/05/21 07:20:59;;;;;;;1.88;1.77;;;;;;;;;;6319486;28;20060;-80
2021/05/21 07:24:00;;;;;;;1.55;1.45;;;15.10;79.30;;;;;;6320680;28;20461;-80
2021/05/21 07:27:01;;;;;;;1.70;1.60;;;15.40;83.50;;;;;;6303002;28;20081;-80
2021/05/21 07:30:02;;;;;;;2.92;1.80;;;15.20;86.10;;;;;;6284774;28;20040;-80
2021/05/21 07:33:03;;;;;;;1.77;1.67;;;;;;;;;;6305808;28;20390;-79
2021/05/21 07:36:05;;;;;;;4.38;1.90;;;15.00;97.10;;;;;;6316031;28;20535;-80
2021/05/21 07:39:06;;;;;;;3.55;2.05;;;15.10;97.20;;;;;;6320079;28;20090;-81
2021/05/21 07:42:06;;;;;;;4.97;1.80;;;14.90;88.00;;;;;;6319009;28;20071;-79
2021/05/21 07:45:08;;;;;;;2.08;1.38;;;14.90;88.70;;;;;;6285419;28;20071;-80
2021/05/21 07:48:08;;;;;;;5.47;2.10;;;15.10;88.00;;;;;;6301440;28;20055;-80
2021/05/21 07:51:09;;;;;;;2.58;1.75;;;14.90;88.40;;;;;;6286947;28;20040;-80
2021/05/21 07:54:10;;;;;;;2.15;1.70;;;14.80;90.70;;;;;;6290750;28;20032;-78
2021/05/21 07:57:12;;;;;;;3.72;3.13;;;14.60;90.80;;;;;;6318330;28;20056;-79
2021/05/21 08:00:13;;;;;;;5.40;3.03;;;14.60;92.50;;;;;;6318684;28;20107;-80
2021/05/21 08:03:15;;;;;;;2.50;2.03;;;14.50;91.00;;;;;;6318486;28;20192;-79
2021/05/21 08:06:16;;;;;;;2.75;1.80;;;14.40;92.00;;;;;;6284457;28;20028;-80
2021/05/21 08:09:17;;;;;;;4.00;2.58;;;14.30;93.20;;;;;;6318536;28;20077;-79
2021/05/21 08:12:18;;;;;;;4.15;2.58;;;;;;;;;;6318228;28;20043;-80
2021/05/21 08:15:19;;;;;;;3.58;2.15;;;13.90;99.90;;;;;;6327778;28;20484;-79
2021/05/21 08:18:19;;;;;;;4.90;2.05;;;13.70;99.90;;;;;;6342937;28;20111;-80
2021/05/21 08:21:20;;;;;;;5.10;3.47;;;;;;;;;;6343532;28;20036;-79
2021/05/21 08:24:21;;;;;;;3.55;2.53;;;;;;;;;;6343244;28;20461;-80
2021/05/21 08:27:22;;;;;;;2.47;2.20;;;;;;;;;;6344738;28;20020;-79
2021/05/21 08:30:24;;;;;;;3.63;2.30;;;;;;;;;;6344158;28;20054;-80
2021/05/21 08:33:25;;;;;;;4.07;2.60;;;12.60;99.90;;;;;;6309077;28;20028;-79
2021/05/21 08:36:25;;;;;;;16.25;11.25;;;12.60;99.90;;;;;;6301117;28;20036;-80
2021/05/21 08:39:27;;;;;;;4.22;3.83;;;12.70;99.90;;;;;;6301103;28;20040;-79
2021/05/21 08:42:30;;;;;;;4.88;4.10;;;12.50;99.90;;;;;;6311224;28;20017;-79
2021/05/21 08:45:30;;;;;;;7.43;5.72;;;12.50;99.90;;;;;;6317484;28;20036;-80
2021/05/21 08:48:31;;;;;;;28.20;18.13;;;;;;;;;;6319090;28;20052;-80
2021/05/21 08:51:33;;;;;;;3.13;2.30;;;;;;;;;;6338980;28;20140;-78
2021/05/21 08:54:36;;;;;;;4.07;3.67;;;12.40;99.90;;;;;;6327633;28;20016;-79
2021/05/21 08:57:38;;;;;;;6.68;5.90;;;;;;;;;;6317105;28;20056;-80
2021/05/21 09:00:39;;;;;;;4.68;3.03;;;12.50;99.90;;;;;;6317306;28;20020;-80
2021/05/21 09:03:40;;;;;;;4.30;3.90;;;;;;;;;;6317378;28;20031;-79
2021/05/21 09:06:41;;;;;;;2.53;2.33;;;12.40;99.90;;;;;;6317970;28;20024;-79
2021/05/21 09:09:45;;;;;;;2.95;2.55;;;12.20;99.90;;;;;;6318549;28;20043;-79
2021/05/21 09:12:51;;;;;;;2.25;1.88;;;12.20;99.90;;;;;;6298582;28;20032;-79
2021/05/21 09:15:51;;;;;;;4.97;4.55;;;12.00;99.90;;;;;;6301011;28;20028;-78
2021/05/21 09:19:23;;;;;;;4.90;4.00;;;12.20;99.90;;;;;;6316750;28;20028;-80
2021/05/21 09:22:24;;;;;;;3.75;2.85;;;;;;;;;;6316518;28;20044;-80
2021/05/21 09:25:47;;;;;;;2.83;2.58;;;12.00;99.90;;;;;;6317692;28;20043;-78
2021/05/21 09:28:48;;;;;;;3.20;2.90;;;;;;;;;;6317951;28;20067;-79
2021/05/21 09:31:49;;;;;;;2.85;2.53;;;;;;;;;;6310245;28;20385;-80
2021/05/21 09:35:11;;;;;;;2.80;1.90;;;12.10;99.90;;;;;;6328229;28;20027;-80
2021/05/21 09:38:15;;;;;;;3.05;2.20;;;12.30;99.90;;;;;;6286569;28;20041;-80
2021/05/21 09:41:16;;;;;;;2.38;2.10;;;12.40;99.90;;;;;;6295118;28;20458;-78
2021/05/21 09:44:17;;;;;;;2.50;2.30;;;12.10;99.90;;;;;;6299856;28;20028;-79
2021/05/21 09:47:18;;;;;;;3.30;2.88;;;;;;;;;;6316435;28;20505;-80
2021/05/21 09:50:20;;;;;;;2.90;2.60;;;12.00;99.90;;;;;;6317691;28;20039;-80
2021/05/21 09:53:22;;;;;;;2.97;2.40;;;12.20;99.90;;;;;;6316445;28;20393;-81
2021/05/21 09:56:24;;;;;;;3.15;2.05;;;12.10;99.90;;;;;;6283130;28;20150;-81
2021/05/21 09:59:37;;;;;;;4.80;2.03;;;12.40;99.90;;;;;;6316465;28;20035;-81
2021/05/21 10:02:38;;;;;;;1.73;1.60;;;12.50;99.90;;;;;;6299451;28;20028;-80
2021/05/21 10:05:39;;;;;;;2.55;1.95;;;12.60;99.90;;;;;;6299447;28;20035;-82
2021/05/21 10:08:40;;;;;;;3.17;1.77;;;12.60;99.90;;;;;;6282350;28;20032;-82
2021/05/21 10:11:42;;;;;;;1.92;1.73;;;12.90;99.90;;;;;;6291151;28;20028;-81
2021/05/21 10:14:48;;;;;;;1.55;1.45;;;12.80;99.90;;;;;;6329937;28;20059;-80
2021/05/21 10:17:49;;;;;;;1.65;1.55;;;12.90;99.90;;;;;;6324438;28;20039;-80
2021/05/21 10:20:49;;;;;;;2.58;1.70;;;12.70;99.90;;;;;;6299289;28;20030;-77
2021/05/21 10:24:02;;;;;;;8.65;1.83;;;13.20;99.90;;;;;;6316221;28;20081;-80
2021/05/21 10:27:05;;;;;;;2.42;2.22;;;12.80;99.90;;;;;;6297213;28;20028;-80
2021/05/21 10:30:07;;;;;;;1.85;1.75;;;12.70;99.90;;;;;;6301736;28;20140;-80
2021/05/21 10:33:20;;;;;;;7.50;3.17;;;13.00;99.90;;;;;;6311995;28;20496;-79
2021/05/21 10:36:25;;;;;;;1.88;1.73;;;13.00;98.10;;;;;;6329866;28;20485;-82
2021/05/21 10:39:25;;;;;;;3.55;1.95;;;13.20;99.00;;;;;;6328866;28;20027;-80
2021/05/21 10:42:26;;;;;;;2.55;1.85;;;12.90;99.90;;;;;;6319328;28;20386;-80
2021/05/21 10:45:26;;;;;;;1.92;1.83;;;13.00;99.90;;;;;;6301749;28;20028;-81
2021/05/21 10:48:27;;;;;;;2.78;2.05;;;12.90;99.90;;;;;;6334191;28;20065;-81
2021/05/21 10:51:47;;;;;;;5.88;3.35;;;12.90;99.90;;;;;;6303051;28;20036;-82
2021/05/21 10:54:51;;;;;;;4.22;3.05;;;12.90;99.90;;;;;;6305277;28;20028;-80
2021/05/21 10:57:59;;;;;;;6.22;2.90;;;12.60;99.90;;;;;;6302826;28;20056;-81
2021/05/21 11:01:19;;;;;;;2.45;2.00;;;12.80;99.90;;;;;;6288638;28;20028;-81
2021/05/21 11:04:29;;;;;;;2.20;2.00;;;12.60;99.90;;;;;;6303075;28;20032;-81
2021/05/21 11:07:34;;;;;;;2.22;1.95;;;12.60;99.90;;;;;;6302964;28;20024;-79
2021/05/21 11:10:34;;;;;;;1.98;1.70;;;12.70;99.90;;;;;;6302809;28;20070;-81
2021/05/21 11:13:35;;;;;;;2.15;2.03;;;12.60;99.90;;;;;;6346251;28;20043;-82
2021/05/21 11:16:36;;;;;;;3.42;2.40;;;12.60;99.90;;;;;;6316569;28;20035;-80
2021/05/21 11:19:36;;;;;;;3.05;2.30;;;12.60;99.90;;;;;;6325215;28;20084;-81
2021/05/21 11:22:38;;;;;;;2.72;2.10;;;;;;;;;;6327648;28;20114;-81
2021/05/21 11:25:38;;;;;;;2.22;2.03;;;;;;;;;;6344699;28;20031;-81
2021/05/21 11:28:42;;;;;;;2.22;2.00;;;12.40;99.90;;;;;;6323910;28;20111;-78
2021/05/21 11:31:43;;;;;;;2.03;1.90;;;12.20;99.90;;;;;;6344116;28;20032;-77
2021/05/21 11:34:44;;;;;;;3.17;1.90;;;;;;;;;;6322984;28;20454;-80
2021/05/21 11:37:45;;;;;;;2.50;2.20;;;;;;;;;;6304578;28;20450;-80
2021/05/21 11:40:45;;;;;;;2.60;1.95;;;11.80;99.90;;;;;;6317549;28;20024;-80
2021/05/21 11:43:47;;;;;;;5.90;2.17;;;11.70;99.90;;;;;;6318988;28;20044;-82
2021/05/21 11:46:47;;;;;;;2.10;2.00;;;11.60;99.90;;;;;;6302149;28;20060;-83
2021/05/21 11:49:48;;;;;;;2.13;2.00;;;;;;;;;;6285405;28;20082;-81
2021/05/21 11:52:49;;;;;;;2.33;1.80;;;11.50;99.90;;;;;;6311264;28;20043;-80
2021/05/21 11:55:50;;;;;;;3.53;2.10;;;;;;;;;;6319027;28;20039;-82
2021/05/21 11:58:51;;;;;;;2.25;2.03;;;11.50;99.90;;;;;;6304412;28;20019;-79
2021/05/21 12:01:59;;;;;;;2.88;1.85;;;11.50;99.90;;;;;;6284935;28;20036;-79
2021/05/21 12:05:00;;;;;;;3.85;2.00;;;11.50;99.90;;;;;;6290960;28;20028;-80
2021/05/21 12:08:01;;;;;;;3.60;2.00;;;11.50;99.90;;;;;;6300080;28;20037;-82
2021/05/21 12:11:02;;;;;;;3.58;2.60;;;11.70;99.90;;;;;;6293904;28;20373;-80
2021/05/21 12:14:06;;;;;;;2.85;2.25;;;12.30;99.90;;;;;;6317727;28;20089;-81
2021/05/21 12:17:07;;;;;;;2.83;2.40;;;11.30;99.90;;;;;;6287013;28;20032;-83
2021/05/21 12:20:08;;;;;;;2.97;2.25;;;11.20;99.90;;;;;;6312885;28;20036;-80
2021/05/21 12:23:09;;;;;;;5.25;2.70;;;8.70;99.90;;;;;;6319138;28;20028;-79
2021/05/21 12:26:13;;;;;;;3.13;2.50;;;11.00;99.90;;;;;;6300927;28;20093;-79
2021/05/21 12:29:13;;;;;;;4.18;2.85;;;10.80;99.90;;;;;;6317767;28;20031;-79
2021/05/21 12:32:15;;;;;;;3.70;2.58;;;10.80;99.90;;;;;;6283980;28;20478;-80
2021/05/21 12:35:17;;;;;;;3.70;2.63;;;11.70;99.90;;;;;;6302217;28;20024;-81
2021/05/21 12:38:19;;;;;;;4.18;3.15;;;10.70;99.90;;;;;;6300723;28;20041;-81
2021/05/21 12:41:24;;;;;;;3.13;2.67;;;10.50;99.90;;;;;;6284552;28;20036;-80
2021/05/21 12:44:25;;;;;;;3.72;2.40;;;10.80;99.90;;;;;;6284493;28;20706;-81
2021/05/21 12:47:25;;;;;;;6.60;4.10;;;10.60;99.90;;;;;;6300176;28;20081;-82
2021/05/21 12:50:26;;;;;;;5.32;3.28;;;10.50;99.90;;;;;;6300448;28;20251;-82
2021/05/21 12:53:28;;;;;;;6.68;4.30;;;10.50;99.90;;;;;;6299630;28;20050;-81
2021/05/21 12:56:36;;;;;;;6.07;3.92;;;10.50;99.90;;;;;;6317770;28;20101;-81
2021/05/21 12:59:37;;;;;;;5.30;4.20;;;;;;;;;;6299987;28;20524;-80
2021/05/21 13:02:39;;;;;;;4.47;3.53;;;10.70;99.90;;;;;;6330203;28;20020;-82
2021/05/21 13:05:40;;;;;;;8.13;5.60;;;10.80;99.90;;;;;;6326497;28;20457;-81
2021/05/21 13:08:47;;;;;;;7.00;3.28;;;10.70;99.90;;;;;;6307676;28;20052;-80
2021/05/21 13:11:48;;;;;;;4.00;2.63;;;10.80;99.90;;;;;;6317264;28;20035;-81
2021/05/21 13:14:49;;;;;;;6.60;3.13;;;10.70;99.90;;;;;;6316908;28;20058;-80
2021/05/21 13:17:51;;;;;;;6.38;3.40;;;10.70;99.90;;;;;;6283427;28;20036;-79
2021/05/21 13:20:52;;;;;;;6.40;4.43;;;10.60;99.90;;;;;;6299873;28;20572;-80
2021/05/21 13:24:08;;;;;;;6.20;3.40;;;10.60;99.90;;;;;;6283234;28;20031;-83
2021/05/21 13:27:09;;;;;;;5.03;3.45;;;10.60;99.90;;;;;;6299544;28;20031;-80
2021/05/21 13:30:10;;;;;;;5.18;3.35;;;10.60;99.90;;;;;;6314868;28;20434;-79
2021/05/21 13:33:10;;;;;;;5.70;3.25;;;10.50;99.90;;;;;;6341600;28;20374;-78
2021/05/21 13:36:11;;;;;;;4.80;3.00;;;11.80;99.90;;;;;;6318036;28;20212;-80
2021/05/21 13:39:12;;;;;;;3.78;3.00;;;10.50;99.90;;;;;;6330439;28;20453;-77
2021/05/21 13:42:12;;;;;;;5.28;3.30;;;10.50;99.90;;;;;;6341831;28;20053;-77
2021/05/21 13:45:13;;;;;;;5.20;3.03;;;10.80;99.90;;;;;;6320445;28;20036;-77
2021/05/21 13:48:14;;;;;;;5.35;3.20;;;10.50;99.90;;;;;;6317157;28;20640;-78
2021/05/21 13:51:14;;;;;;;6.07;3.58;;;10.50;99.90;;;;;;6320612;28;20028;-76
2021/05/21 13:54:15;;;;;;;3.78;2.90;;;10.70;99.90;;;;;;6341746;28;20047;-78
2021/05/21 13:57:15;;;;;;;8.07;2.88;;;11.20;99.90;;;;;;6343045;28;20103;-78
2021/05/21 14:00:16;;;;;;;4.65;3.10;;;10.80;99.90;;;;;;6320573;28;20378;-77
2021/05/21 14:03:17;;;;;;;5.75;3.10;;;11.00;99.90;;;;;;6318413;28;20051;-77
2021/05/21 14:06:18;;;;;;;2.58;2.28;;;11.00;99.90;;;;;;6304439;28;20056;-77
2021/05/21 14:09:18;;;;;;;3.08;2.20;;;11.10;99.90;;;;;;6287960;28;20020;-77
2021/05/21 14:12:19;;;;;;;3.42;1.95;;;11.20;99.90;;;;;;6323933;28;20036;-79
2021/05/21 14:15:19;;;;;;;3.78;2.38;;;11.20;99.90;;;;;;6306555;28;20032;-78
2021/05/21 14:18:20;;;;;;;4.22;3.08;;;11.30;99.90;;;;;;6287073;28;20034;-78
2021/05/21 14:21:21;;;;;;;3.47;2.70;;;;;;;;;;6324286;28;20150;-78
2021/05/21 14:24:22;;;;;;;9.65;3.33;;;11.60;99.90;;;;;;6320464;28;20117;-77
2021/05/21 14:27:24;;;;;;;3.30;2.53;;;11.80;99.90;;;;;;6321181;28;20039;-79
2021/05/21 14:30:25;;;;;;;2.60;2.25;;;11.50;99.90;;;;;;6306091;28;20048;-79
2021/05/21 14:33:33;;;;;;;2.45;2.05;;;11.90;99.90;;;;;;6304578;28;20048;-80
2021/05/21 14:36:33;;;;;;;1.55;1.45;;;11.60;99.90;;;;;;6290092;28;20035;-78
2021/05/21 14:39:34;;;;;;;3.53;2.50;;;12.50;99.90;;;;;;6287463;28;20105;-78
2021/05/21 14:42:34;;;;;;;4.57;3.42;;;11.80;99.90;;;;;;6304713;28;20039;-81
2021/05/21 14:45:36;;;;;;;4.40;3.40;;;11.70;99.90;;;;;;6303193;28;20028;-79
2021/05/21 14:48:36;;;;;;;3.80;2.33;;;11.70;99.90;;;;;;6340980;28;20059;-81
2021/05/21 14:51:37;;;;;;;4.97;2.97;;;11.60;99.90;;;;;;6328521;28;20065;-80
2021/05/21 14:54:38;;;;;;;4.53;2.53;;;11.60;99.90;;;;;;6303054;28;20016;-80
2021/05/21 14:57:38;;;;;;;4.38;3.30;;;11.60;99.90;;;;;;6320124;28;20036;-81
2021/05/21 15:00:39;;;;;;;2.95;2.58;;;11.90;99.90;;;;;;6334293;28;20457;-78
2021/05/21 15:03:41;;;;;;;5.18;3.80;;;11.70;99.90;;;;;;6328128;28;20036;-79
2021/05/21 15:06:42;;;;;;;2.78;2.03;;;12.10;99.90;;;;;;6326274;28;20111;-80
2021/05/21 15:09:42;;;;;;;3.35;2.40;;;11.60;99.90;;;;;;6286406;28;20393;-80
2021/05/21 15:12:43;;;;;;;2.08;1.88;;;;;;;;;;6302890;28;20123;-78
2021/05/21 15:16:05;;;;;;;3.65;2.55;;;11.50;99.90;;;;;;6321855;28;20036;-78
2021/05/21 15:25:29;;;;;;;2.40;2.20;;;11.70;99.90;;;;;;6286094;28;20470;-81
2021/05/21 15:28:30;;;;;;;5.35;3.65;;;;;;;;;;6286734;28;20036;-79
2021/05/21 15:31:30;;;;;;;3.85;2.45;;;11.60;99.90;;;;;;6286526;28;20038;-79
2021/05/21 15:34:31;;;;;;;2.53;2.30;;;11.60;99.90;;;;;;6318635;28;20450;-79
2021/05/21 15:37:32;;;;;;;4.78;3.50;;;11.50;99.90;;;;;;6286638;28;20034;-79
2021/05/21 15:40:33;;;;;;;6.10;2.97;;;11.40;99.90;;;;;;6268787;28;20461;-79
2021/05/21 15:46:54;;;;;;;3.42;1.85;;;11.60;99.90;;;;;;6321165;28;20675;-80
2021/05/21 15:50:04;;;;;;;2.20;2.00;;;11.50;99.90;;;;;;6318193;28;20020;-80
2021/05/21 15:53:57;;;;;;;2.20;2.00;;;11.30;99.90;;;;;;6309762;28;20048;-81
2021/05/21 15:59:44;;;;;;;2.83;2.42;;;;;;;;;;6304503;28;20030;-82
2021/05/21 16:02:45;;;;;;;4.13;3.08;;;;;;;;;;6288018;28;20367;-85
2021/05/21 16:05:48;;;;;;;4.18;2.00;;;;;;;;;;6305020;28;20024;-83
2021/05/21 16:08:49;;;;;;;1.80;1.60;;;;;;;;;;6304657;28;20020;-81
2021/05/21 16:11:50;;;;;;;1.48;1.38;;;;;;;;;;6303792;28;20452;-83
2021/05/21 16:14:51;;;;;;;2.95;1.70;;;;;;;;;;6320523;28;20024;-81
2021/05/21 16:17:52;;;;;;;2.97;2.30;;;;;;;;;;6318957;28;20112;-82
2021/05/21 16:20:53;;;;;;;2.47;2.28;;;11.90;99.90;;;;;;6287149;28;20066;-84
2021/05/21 16:23:58;;;;;;;2.63;2.40;;;11.80;99.90;;;;;;6282930;28;20031;-83